Time;durP1;ratioP1;P1;durP2;ratioP2;P2;SDS_P1;SDS_P2;PMS_P1;PMS_P2;Temp;Humidity;BMP_temperature;BMP_pressure;BME280_temperature;BME280_humidity;BME280_pressure;Samples;Min_cycle;Max_cycle;Signal;HPM_P1;HPM_P2
2023/09/02 00:01:13;;;;;;;;;;;14.10;99.90;;;;;;5037679;28;19931;-78
2023/09/02 00:03:39;;;;;;;;;;;14.10;99.90;;;;;;5055053;28;19925;-79
2023/09/02 00:06:04;;;;;;;;;;;14.10;99.90;;;;;;5054629;28;19931;-78
2023/09/02 00:08:30;;;;;;;;;;;14.10;99.90;;;;;;5054548;28;19924;-79
2023/09/02 00:10:55;;;;;;;;;;;14.10;99.90;;;;;;5036939;28;20350;-82
2023/09/02 00:13:21;;;;;;;;;;;14.10;99.90;;;;;;5037050;28;19933;-82
2023/09/02 00:15:47;;;;;;;;;;;14.10;99.90;;;;;;5054377;28;19975;-79
2023/09/02 00:18:12;;;;;;;;;;;14.20;99.90;;;;;;5037016;28;19925;-78
2023/09/02 00:20:38;;;;;;;;;;;14.10;99.90;;;;;;5054263;28;19925;-78
2023/09/02 00:23:03;;;;;;;;;;;14.10;99.90;;;;;;5054313;28;20020;-80
2023/09/02 00:25:29;;;;;;;;;;;14.10;99.90;;;;;;5036454;28;19932;-80
2023/09/02 00:27:54;;;;;;;;;;;14.10;99.90;;;;;;5054287;28;19925;-78
2023/09/02 00:30:20;;;;;;;;;;;14.20;99.90;;;;;;5054215;28;19928;-78
2023/09/02 00:32:46;;;;;;;;;;;14.10;99.90;;;;;;5020605;28;19925;-79
2023/09/02 00:35:11;;;;;;;;;;;14.10;99.90;;;;;;5054163;28;20353;-81
2023/09/02 00:37:37;;;;;;;;;;;14.20;99.90;;;;;;5036275;28;19925;-79
2023/09/02 00:40:03;;;;;;;;;;;14.20;99.90;;;;;;5053618;28;19929;-78
2023/09/02 00:42:30;;;;;;;;;;;14.20;99.90;;;;;;5054407;28;19932;-79
2023/09/02 00:44:56;;;;;;;;;;;14.20;99.90;;;;;;5055164;28;19976;-80
2023/09/02 00:47:22;;;;;;;;;;;14.20;99.90;;;;;;5053807;28;20050;-79
2023/09/02 00:49:48;;;;;;;;;;;14.20;99.90;;;;;;5053875;28;19924;-81
2023/09/02 00:52:13;;;;;;;;;;;14.20;99.90;;;;;;5053916;28;19932;-78
2023/09/02 00:54:39;;;;;;;;;;;14.20;99.90;;;;;;5053781;28;19931;-80
2023/09/02 00:57:06;;;;;;;;;;;14.20;99.90;;;;;;5053697;28;19925;-79
2023/09/02 00:59:32;;;;;;;;;;;14.30;99.90;;;;;;5053894;28;19935;-78
2023/09/02 01:01:59;;;;;;;;;;;14.30;99.90;;;;;;5053751;28;19924;-79
2023/09/02 01:04:24;;;;;;;;;;;14.40;99.90;;;;;;5035743;28;20031;-82
2023/09/02 01:06:50;;;;;;;;;;;14.40;99.90;;;;;;5020058;28;20063;-79
2023/09/02 01:09:16;;;;;;;;;;;14.40;99.90;;;;;;5053183;28;19991;-78
2023/09/02 01:11:41;;;;;;;;;;;14.40;99.90;;;;;;5036585;28;19929;-87
2023/09/02 01:14:08;;;;;;;;;;;14.40;99.90;;;;;;5053304;28;19940;-79
2023/09/02 01:16:34;;;;;;;;;;;14.40;99.90;;;;;;5053312;28;19925;-79
2023/09/02 01:18:59;;;;;;;;;;;14.40;99.90;;;;;;5053908;28;19932;-78
2023/09/02 01:21:44;;;;;;;;;;;14.40;99.90;;;;;;5053507;28;19925;-79
2023/09/02 01:24:27;;;;;;;;;;;14.40;99.90;;;;;;5053178;28;19932;-86
2023/09/02 01:26:59;;;;;;;;;;;14.40;99.90;;;;;;5053219;28;19932;-87
2023/09/02 01:29:25;;;;;;;;;;;14.40;99.90;;;;;;5053305;28;20020;-79
2023/09/02 01:31:52;;;;;;;;;;;14.40;99.90;;;;;;5053546;28;19925;-78
2023/09/02 01:34:18;;;;;;;;;;;14.40;99.90;;;;;;5053544;28;19932;-79
2023/09/02 01:36:50;;;;;;;;;;;14.40;99.90;;;;;;5053480;28;19925;-78
2023/09/02 01:39:16;;;;;;;;;;;14.50;99.90;;;;;;5053425;28;20375;-79
2023/09/02 01:41:42;;;;;;;;;;;14.50;99.90;;;;;;5054264;28;19925;-79
2023/09/02 01:44:09;;;;;;;;;;;14.50;99.90;;;;;;5053507;28;19958;-79
2023/09/02 01:46:35;;;;;;;;;;;14.50;99.90;;;;;;5053332;28;19925;-82
2023/09/02 01:49:01;;;;;;;;;;;14.50;99.90;;;;;;5053929;28;19929;-79
2023/09/02 01:51:27;;;;;;;;;;;14.60;99.90;;;;;;5053412;28;20036;-79
2023/09/02 01:53:52;;;;;;;;;;;14.50;99.90;;;;;;5057181;28;19951;-80
2023/09/02 01:56:18;;;;;;;;;;;14.60;99.90;;;;;;5057362;28;19925;-78
2023/09/02 01:58:45;;;;;;;;;;;14.50;99.90;;;;;;5057335;28;19931;-79
2023/09/02 02:01:10;;;;;;;;;;;14.60;99.90;;;;;;5057281;28;19960;-78
2023/09/02 02:03:50;;;;;;;;;;;14.50;99.90;;;;;;5056946;28;20351;-79
2023/09/02 02:06:17;;;;;;;;;;;14.60;99.90;;;;;;5057648;28;19924;-82
2023/09/02 02:08:45;;;;;;;;;;;14.60;99.90;;;;;;5056329;28;20297;-78
2023/09/02 02:11:12;;;;;;;;;;;14.60;99.90;;;;;;5057351;28;19929;-79
2023/09/02 02:13:38;;;;;;;;;;;14.60;99.90;;;;;;5057499;28;20272;-88
2023/09/02 02:16:04;;;;;;;;;;;14.60;99.90;;;;;;5056474;28;20395;-79
2023/09/02 02:18:29;;;;;;;;;;;14.70;99.90;;;;;;5056978;28;19932;-78
2023/09/02 02:21:04;;;;;;;;;;;14.60;99.90;;;;;;5056658;28;19932;-78
2023/09/02 02:23:30;;;;;;;;;;;14.70;99.90;;;;;;5056590;28;19925;-79
2023/09/02 02:25:59;;;;;;;;;;;14.70;99.90;;;;;;5056490;28;20375;-79
2023/09/02 02:28:25;;;;;;;;;;;14.70;99.90;;;;;;5057156;28;19925;-80
2023/09/02 02:30:50;;;;;;;;;;;14.70;99.90;;;;;;5022238;28;19928;-79
2023/09/02 02:33:16;;;;;;;;;;;14.70;99.90;;;;;;5056730;28;19925;-86
2023/09/02 02:35:41;;;;;;;;;;;14.80;99.90;;;;;;5038970;28;20399;-79
2023/09/02 02:38:07;;;;;;;;;;;14.80;99.90;;;;;;5056225;28;19932;-79
2023/09/02 02:40:33;;;;;;;;;;;14.70;99.90;;;;;;5056085;28;19972;-80
2023/09/02 02:42:58;;;;;;;;;;;14.70;99.90;;;;;;5056300;28;19932;-79
2023/09/02 02:45:24;;;;;;;;;;;14.70;99.90;;;;;;5056245;28;19925;-79
2023/09/02 02:47:49;;;;;;;;;;;14.70;99.90;;;;;;5056083;28;19970;-79
2023/09/02 02:50:15;;;;;;;;;;;14.70;99.90;;;;;;5038131;28;19924;-83
2023/09/02 02:52:40;;;;;;;;;;;14.70;99.90;;;;;;5056325;28;19959;-79
2023/09/02 02:55:06;;;;;;;;;;;14.70;99.90;;;;;;5055988;28;20015;-79
2023/09/02 02:57:32;;;;;;;;;;;14.70;99.90;;;;;;5055792;28;19932;-79
2023/09/02 02:59:57;;;;;;;;;;;14.80;99.90;;;;;;5055480;28;20014;-86
2023/09/02 03:02:23;;;;;;;;;;;14.70;99.90;;;;;;5055648;28;19971;-83
2023/09/02 03:04:49;;;;;;;;;;;14.80;99.90;;;;;;5036747;28;19947;-80
2023/09/02 03:07:15;;;;;;;;;;;14.80;99.90;;;;;;5055657;28;19925;-81
2023/09/02 03:09:40;;;;;;;;;;;14.80;99.90;;;;;;5055555;28;19925;-79
2023/09/02 03:12:06;;;;;;;;;;;14.80;99.90;;;;;;5055617;28;19925;-82
2023/09/02 03:14:32;;;;;;;;;;;14.80;99.90;;;;;;5055452;28;19947;-79
2023/09/02 03:16:58;;;;;;;;;;;14.80;99.90;;;;;;5056144;28;19971;-78
2023/09/02 03:19:23;;;;;;;;;;;14.80;99.90;;;;;;5055394;28;19925;-79
2023/09/02 03:21:49;;;;;;;;;;;14.80;99.90;;;;;;5038040;28;19931;-86
2023/09/02 03:24:15;;;;;;;;;;;14.80;99.90;;;;;;5055831;28;19925;-79
2023/09/02 03:26:40;;;;;;;;;;;14.80;99.90;;;;;;5055006;28;19979;-79
2023/09/02 03:29:06;;;;;;;;;;;14.80;99.90;;;;;;5055221;28;19925;-79
2023/09/02 03:31:31;;;;;;;;;;;14.80;99.90;;;;;;5055065;28;20012;-78
2023/09/02 03:33:57;;;;;;;;;;;14.80;99.90;;;;;;5055388;28;20067;-81
2023/09/02 03:36:22;;;;;;;;;;;14.80;99.90;;;;;;5057552;28;19929;-78
2023/09/02 03:38:48;;;;;;;;;;;14.80;99.90;;;;;;5058745;28;19925;-83
2023/09/02 03:41:17;;;;;;;;;;;14.80;99.90;;;;;;5056223;28;19924;-78
2023/09/02 03:43:43;;;;;;;;;;;14.80;99.90;;;;;;5055038;28;19924;-79
2023/09/02 03:46:09;;;;;;;;;;;14.80;99.90;;;;;;5055010;28;20265;-79
2023/09/02 03:48:35;;;;;;;;;;;14.80;99.90;;;;;;5054805;28;19924;-80
2023/09/02 03:51:03;;;;;;;;;;;14.80;99.90;;;;;;5054857;28;20011;-78
2023/09/02 03:53:30;;;;;;;;;;;14.80;99.90;;;;;;5054832;28;19936;-79
2023/09/02 03:55:55;;;;;;;;;;;14.80;99.90;;;;;;5037834;28;20337;-78
2023/09/02 03:58:21;;;;;;;;;;;14.80;99.90;;;;;;5054581;28;20012;-79
2023/09/02 04:00:46;;;;;;;;;;;14.80;99.90;;;;;;5054978;28;19925;-79
2023/09/02 04:03:14;;;;;;;;;;;14.80;99.90;;;;;;5054899;28;19925;-79
2023/09/02 04:05:40;;;;;;;;;;;14.80;99.90;;;;;;5037477;28;19931;-78
2023/09/02 04:08:05;;;;;;;;;;;14.80;99.90;;;;;;5054696;28;19924;-79
2023/09/02 04:10:31;;;;;;;;;;;14.80;99.90;;;;;;5054624;28;20015;-82
2023/09/02 04:12:57;;;;;;;;;;;14.80;99.90;;;;;;5054680;28;19971;-79
2023/09/02 04:15:22;;;;;;;;;;;14.80;99.90;;;;;;5054411;28;19931;-79
2023/09/02 04:17:48;;;;;;;;;;;14.80;99.90;;;;;;5054537;28;19976;-79
2023/09/02 04:20:13;;;;;;;;;;;14.80;99.90;;;;;;5054738;28;20326;-79
2023/09/02 04:22:39;;;;;;;;;;;14.80;99.90;;;;;;5054577;28;20012;-79
2023/09/02 04:25:05;;;;;;;;;;;14.80;99.90;;;;;;5054702;28;19932;-79
2023/09/02 04:27:31;;;;;;;;;;;14.80;99.90;;;;;;5054431;28;19925;-79
2023/09/02 04:29:56;;;;;;;;;;;14.80;99.90;;;;;;5036607;28;19937;-79
2023/09/02 04:32:22;;;;;;;;;;;14.80;99.90;;;;;;5036278;28;20372;-86
2023/09/02 04:34:47;;;;;;;;;;;14.80;99.90;;;;;;5053672;28;19929;-84
2023/09/02 04:37:13;;;;;;;;;;;14.80;99.90;;;;;;5053994;28;20023;-79
2023/09/02 04:39:40;;;;;;;;;;;14.80;99.90;;;;;;5053911;28;19925;-80
2023/09/02 04:42:06;;;;;;;;;;;14.90;99.90;;;;;;5053800;28;19924;-79
2023/09/02 04:44:31;;;;;;;;;;;14.80;99.90;;;;;;5053808;28;20393;-81
2023/09/02 04:46:57;;;;;;;;;;;14.90;99.90;;;;;;5053529;28;19924;-80
2023/09/02 04:49:22;;;;;;;;;;;14.90;99.90;;;;;;5037164;28;20007;-80
2023/09/02 04:51:48;;;;;;;;;;;14.90;99.90;;;;;;5054553;28;20368;-81
2023/09/02 04:54:14;;;;;;;;;;;14.90;99.90;;;;;;5053851;28;20026;-81
2023/09/02 04:56:39;;;;;;;;;;;14.90;99.90;;;;;;5053929;28;19931;-81
2023/09/02 04:59:05;;;;;;;;;;;14.90;99.90;;;;;;5053575;28;20007;-81
2023/09/02 05:01:31;;;;;;;;;;;14.90;99.90;;;;;;5035835;28;19983;-82
2023/09/02 05:03:56;;;;;;;;;;;14.90;99.90;;;;;;5036173;28;19971;-81
2023/09/02 05:06:22;;;;;;;;;;;14.90;99.90;;;;;;5054367;28;19924;-83
2023/09/02 05:08:50;;;;;;;;;;;14.90;99.90;;;;;;5053444;28;19925;-81
2023/09/02 05:11:15;;;;;;;;;;;14.90;99.90;;;;;;5053460;28;19943;-81
2023/09/02 05:13:41;;;;;;;;;;;14.80;99.90;;;;;;5053822;28;19928;-81
2023/09/02 05:16:06;;;;;;;;;;;14.80;99.90;;;;;;5053880;28;20414;-86
2023/09/02 05:18:32;;;;;;;;;;;14.90;99.90;;;;;;5053166;28;19932;-81
2023/09/02 05:20:57;;;;;;;;;;;14.90;99.90;;;;;;5053148;28;20269;-81
2023/09/02 05:23:23;;;;;;;;;;;14.80;99.90;;;;;;5053873;28;19931;-82
2023/09/02 05:25:55;;;;;;;;;;;14.90;99.90;;;;;;5053497;28;19925;-81
2023/09/02 05:28:21;;;;;;;;;;;14.90;99.90;;;;;;5038698;28;19975;-81
2023/09/02 05:30:47;;;;;;;;;;;14.80;99.90;;;;;;5058381;28;19975;-81
2023/09/02 05:33:14;;;;;;;;;;;14.80;99.90;;;;;;5057744;28;20423;-81
2023/09/02 05:35:40;;;;;;;;;;;14.90;99.90;;;;;;5057592;28;19931;-81
2023/09/02 05:38:06;;;;;;;;;;;14.90;99.90;;;;;;5057467;28;20007;-81
2023/09/02 05:40:31;;;;;;;;;;;14.80;99.90;;;;;;5057877;28;19935;-81
2023/09/02 05:42:57;;;;;;;;;;;14.90;99.90;;;;;;5057353;28;19925;-84
2023/09/02 05:45:22;;;;;;;;;;;14.90;99.90;;;;;;5057476;28;20019;-81
2023/09/02 05:47:48;;;;;;;;;;;14.90;99.90;;;;;;5057198;28;19929;-82
2023/09/02 05:50:14;;;;;;;;;;;14.90;99.90;;;;;;5057436;28;19932;-82
2023/09/02 05:52:40;;;;;;;;;;;14.90;99.90;;;;;;5057916;28;19932;-83
2023/09/02 05:55:06;;;;;;;;;;;14.90;99.90;;;;;;5057337;28;20015;-82
2023/09/02 05:57:32;;;;;;;;;;;14.90;99.90;;;;;;5039604;28;20020;-83
2023/09/02 05:59:58;;;;;;;;;;;14.90;99.90;;;;;;5050444;28;20041;-84
2023/09/02 06:02:23;;;;;;;;;;;15.00;99.90;;;;;;5057506;28;19925;-82
2023/09/02 06:04:49;;;;;;;;;;;15.00;99.90;;;;;;5056750;28;19925;-83
2023/09/02 06:07:14;;;;;;;;;;;15.00;99.90;;;;;;5056947;28;20014;-82
2023/09/02 06:09:40;;;;;;;;;;;15.10;99.90;;;;;;5057331;28;20363;-82
2023/09/02 06:12:07;;;;;;;;;;;15.10;99.90;;;;;;5056959;28;19995;-83
2023/09/02 06:14:32;;;;;;;;;;;15.10;99.90;;;;;;5056689;28;19932;-87
2023/09/02 06:16:58;;;;;;;;;;;15.20;99.90;;;;;;5056167;28;20299;-83
2023/09/02 06:19:23;;;;;;;;;;;15.20;99.90;;;;;;5056718;28;20019;-84
2023/09/02 06:21:49;;;;;;;;;;;15.20;99.90;;;;;;5056840;28;19925;-83
2023/09/02 06:24:14;;;;;;;;;;;15.20;99.90;;;;;;5056636;28;19931;-83
2023/09/02 06:26:40;;;;;;;;;;;15.30;99.90;;;;;;5055374;28;20391;-83
2023/09/02 06:29:06;;;;;;;;;;;15.30;99.90;;;;;;5056441;28;20253;-82
2023/09/02 06:31:31;;;;;;;;;;;15.30;99.90;;;;;;5056339;28;19929;-83
2023/09/02 06:33:57;;;;;;;;;;;15.30;99.90;;;;;;5056298;28;19975;-83
2023/09/02 06:36:22;;;;;;;;;;;15.30;99.90;;;;;;5057310;28;19930;-90
2023/09/02 06:38:48;;;;;;;;;;;15.40;99.90;;;;;;5056031;28;19925;-84
2023/09/02 06:41:14;;;;;;;;;;;15.40;99.90;;;;;;5056141;28;19931;-82
2023/09/02 06:43:41;;;;;;;;;;;15.50;99.90;;;;;;5056789;28;19978;-83
2023/09/02 06:46:17;;;;;;;;;;;15.50;99.90;;;;;;5056163;28;20376;-83
2023/09/02 06:48:44;;;;;;;;;;;15.60;99.90;;;;;;5054382;28;19932;-83
2023/09/02 06:51:09;;;;;;;;;;;15.60;99.90;;;;;;5056356;28;20020;-82
2023/09/02 06:53:35;;;;;;;;;;;15.60;99.90;;;;;;5056081;28;19972;-82
2023/09/02 06:56:01;;;;;;;;;;;15.60;99.90;;;;;;5055860;28;20243;-83
2023/09/02 06:58:26;;;;;;;;;;;15.60;99.90;;;;;;5071578;28;20264;-82
2023/09/02 07:00:52;;;;;;;;;;;15.60;99.90;;;;;;5055311;28;19932;-82
2023/09/02 07:03:17;;;;;;;;;;;15.60;99.90;;;;;;5055629;28;20007;-83
2023/09/02 07:05:43;;;;;;;;;;;15.60;99.90;;;;;;5038088;28;20011;-81
2023/09/02 07:08:09;;;;;;;;;;;15.70;99.90;;;;;;5055945;28;19940;-81
2023/09/02 07:10:34;;;;;;;;;;;15.60;99.90;;;;;;5055619;28;19925;-81
2023/09/02 07:13:00;;;;;;;;;;;15.60;99.90;;;;;;5055671;28;19925;-81
2023/09/02 07:15:25;;;;;;;;;;;15.70;99.90;;;;;;5055303;28;19932;-83
2023/09/02 07:17:52;;;;;;;;;;;15.70;99.90;;;;;;5037197;28;19972;-81
2023/09/02 07:20:17;;;;;;;;;;;15.70;99.90;;;;;;5055497;28;19931;-83
2023/09/02 07:22:43;;;;;;;;;;;15.80;99.90;;;;;;5055480;28;19925;-81
2023/09/02 07:25:08;;;;;;;;;;;15.90;99.90;;;;;;5055214;28;20372;-84
2023/09/02 07:27:34;;;;;;;;;;;15.90;99.90;;;;;;5037396;28;20049;-82
2023/09/02 07:30:00;;;;;;;;;;;16.00;99.90;;;;;;5055322;28;19965;-82
2023/09/02 07:32:26;;;;;;;;;;;16.10;99.90;;;;;;5056062;28;20346;-82
2023/09/02 07:34:51;;;;;;;;;;;16.20;99.90;;;;;;5037675;28;20374;-82
2023/09/02 07:37:17;;;;;;;;;;;16.30;99.90;;;;;;5055370;28;19929;-81
2023/09/02 07:39:42;;;;;;;;;;;16.40;99.90;;;;;;5055360;28;19932;-82
2023/09/02 07:42:08;;;;;;;;;;;16.40;99.90;;;;;;5021324;28;19932;-82
2023/09/02 07:44:33;;;;;;;;;;;16.40;99.90;;;;;;5055285;28;19925;-81
2023/09/02 07:46:59;;;;;;;;;;;16.40;99.90;;;;;;5037427;28;19925;-82
2023/09/02 07:49:25;;;;;;;;;;;16.40;99.90;;;;;;5036807;28;19931;-82
2023/09/02 07:51:50;;;;;;;;;;;16.40;99.90;;;;;;5054881;28;19924;-81
2023/09/02 07:54:16;;;;;;;;;;;16.40;99.90;;;;;;5055306;28;20286;-81
2023/09/02 07:56:41;;;;;;;;;;;16.40;99.90;;;;;;5055086;28;19929;-81
2023/09/02 07:59:07;;;;;;;;;;;16.40;99.90;;;;;;5038983;28;19960;-81
2023/09/02 08:01:33;;;;;;;;;;;16.40;99.90;;;;;;5054641;28;20331;-81
2023/09/02 08:03:58;;;;;;;;;;;16.40;99.90;;;;;;5054560;28;19971;-83
2023/09/02 08:06:24;;;;;;;;;;;16.40;99.90;;;;;;5053873;28;19951;-83
2023/09/02 08:08:51;;;;;;;;;;;16.50;99.90;;;;;;5054458;28;20070;-84
2023/09/02 08:11:18;;;;;;;;;;;16.70;99.90;;;;;;5054352;28;19925;-83
2023/09/02 08:13:44;;;;;;;;;;;16.70;99.90;;;;;;5053083;28;19925;-83
2023/09/02 08:16:10;;;;;;;;;;;16.80;99.90;;;;;;5054342;28;19925;-83
2023/09/02 08:18:35;;;;;;;;;;;16.80;99.90;;;;;;5053252;28;19986;-84
2023/09/02 08:21:08;;;;;;;;;;;16.90;99.90;;;;;;5054582;28;19935;-83
2023/09/02 08:23:33;;;;;;;;;;;17.00;99.90;;;;;;5054788;28;20018;-82
2023/09/02 08:26:04;;;;;;;;;;;17.10;99.90;;;;;;5054139;28;20431;-88
2023/09/02 08:28:30;;;;;;;;;;;17.10;99.90;;;;;;5053270;28;19925;-81
2023/09/02 08:30:55;;;;;;;;;;;17.20;99.90;;;;;;5054143;28;20012;-83
2023/09/02 08:33:21;;;;;;;;;;;17.30;99.90;;;;;;5052695;28;19934;-82
2023/09/02 08:35:46;;;;;;;;;;;17.30;99.90;;;;;;5056720;28;19924;-80
2023/09/02 08:38:12;;;;;;;;;;;17.30;99.90;;;;;;5058711;28;20020;-89
2023/09/02 08:40:41;;;;;;;;;;;17.40;99.90;;;;;;5056549;28;19986;-80
2023/09/02 08:43:06;;;;;;;;;;;17.40;99.90;;;;;;5054130;28;19971;-80
2023/09/02 08:45:33;;;;;;;;;;;17.50;99.90;;;;;;5054929;28;19925;-80
2023/09/02 08:48:00;;;;;;;;;;;17.60;99.90;;;;;;5053965;28;19932;-81
2023/09/02 08:50:26;;;;;;;;;;;17.70;99.90;;;;;;5054368;28;20386;-80
2023/09/02 08:52:52;;;;;;;;;;;17.70;99.90;;;;;;5054260;28;20019;-80
2023/09/02 08:55:18;;;;;;;;;;;17.80;99.90;;;;;;5053884;28;20388;-80
2023/09/02 08:57:44;;;;;;;;;;;17.80;99.90;;;;;;5053795;28;20291;-81
2023/09/02 09:00:10;;;;;;;;;;;17.80;99.90;;;;;;5053450;28;19924;-82
2023/09/02 09:02:40;;;;;;;;;;;17.90;99.90;;;;;;5036053;28;19932;-80
2023/09/02 09:05:06;;;;;;;;;;;17.90;99.90;;;;;;5053322;28;19925;-81
2023/09/02 09:07:32;;;;;;;;;;;18.00;99.90;;;;;;5035851;28;20437;-85
2023/09/02 09:09:59;;;;;;;;;;;18.00;99.90;;;;;;5053779;28;19925;-81
2023/09/02 09:12:25;;;;;;;;;;;18.10;99.90;;;;;;5036239;28;19925;-81
2023/09/02 09:14:53;;;;;;;;;;;18.10;99.90;;;;;;5053587;28;19925;-81
2023/09/02 09:17:19;;;;;;;;;;;18.20;99.90;;;;;;5053336;28;19924;-80
2023/09/02 09:19:44;;;;;;;;;;;18.20;99.90;;;;;;5053656;28;20388;-80
2023/09/02 09:22:10;;;;;;;;;;;18.20;99.90;;;;;;5036845;28;19968;-80
2023/09/02 09:24:36;;;;;;;;;;;18.30;99.90;;;;;;5054140;28;19963;-81
2023/09/02 09:27:05;;;;;;;;;;;18.30;99.90;;;;;;5036316;28;19929;-80
2023/09/02 09:29:43;;;;;;;;;;;18.40;99.90;;;;;;5053598;28;19932;-79
2023/09/02 09:32:12;;;;;;;;;;;18.40;99.90;;;;;;5053610;28;19924;-84
2023/09/02 09:34:42;;;;;;;;;;;18.40;99.90;;;;;;5053395;28;19936;-81
2023/09/02 09:37:09;;;;;;;;;;;18.50;99.90;;;;;;5053589;28;19929;-81
2023/09/02 09:39:39;;;;;;;;;;;18.60;99.90;;;;;;5053580;28;19939;-81
2023/09/02 09:42:05;;;;;;;;;;;18.60;99.90;;;;;;5036751;28;19925;-81
2023/09/02 09:44:30;;;;;;;;;;;18.60;99.90;;;;;;5054424;28;19925;-86
2023/09/02 09:46:56;;;;;;;;;;;18.70;99.90;;;;;;5053466;28;19932;-81
2023/09/02 09:49:26;;;;;;;;;;;18.80;99.90;;;;;;5052746;28;19954;-84
2023/09/02 09:52:07;;;;;;;;;;;18.80;99.90;;;;;;5053037;28;20319;-82
2023/09/02 09:54:39;;;;;;;;;;;18.80;99.90;;;;;;5020175;28;19925;-81
2023/09/02 09:57:05;;;;;;;;;;;18.80;99.90;;;;;;5053237;28;19931;-81
2023/09/02 09:59:31;;;;;;;;;;;18.90;99.90;;;;;;5053290;28;20249;-83
2023/09/02 10:02:00;;;;;;;;;;;18.90;99.90;;;;;;5053030;28;19932;-78
2023/09/02 10:04:26;;;;;;;;;;;19.00;99.90;;;;;;5053183;28;19925;-78
2023/09/02 10:06:56;;;;;;;;;;;19.10;99.90;;;;;;5053984;28;20026;-79
2023/09/02 10:09:22;;;;;;;;;;;19.20;99.90;;;;;;5053477;28;20039;-80
2023/09/02 10:11:47;;;;;;;;;;;19.30;99.90;;;;;;5053758;28;19946;-78
2023/09/02 10:14:13;;;;;;;;;;;19.50;99.90;;;;;;5055687;28;20023;-80
2023/09/02 10:16:39;;;;;;;;;;;19.60;99.90;;;;;;5057694;28;19925;-79
2023/09/02 10:19:04;;;;;;;;;;;19.70;99.90;;;;;;5056547;28;19928;-78
2023/09/02 10:21:33;;;;;;;;;;;19.70;99.90;;;;;;5038854;28;19976;-79
2023/09/02 10:24:01;;;;;;;;;;;19.70;99.90;;;;;;5039302;28;19925;-80
2023/09/02 10:26:48;;;;;;;;;;;19.70;99.90;;;;;;5056577;28;19986;-83
2023/09/02 10:29:16;;;;;;;;;;;19.80;99.90;;;;;;5057291;28;19931;-79
2023/09/02 10:31:45;;;;;;;;;;;19.80;99.90;;;;;;5056483;28;19931;-78
2023/09/02 10:34:17;;;;;;;;;;;19.80;99.90;;;;;;5056520;28;19925;-77
2023/09/02 10:36:55;;;;;;;;;;;19.90;99.90;;;;;;5056249;28;20303;-75
2023/09/02 10:39:48;;;;;;;;;;;19.90;99.90;;;;;;5057165;28;20244;-78
2023/09/02 10:42:15;;;;;;;;;;;19.90;99.90;;;;;;5056994;28;19925;-77
2023/09/02 10:44:41;;;;;;;;;;;20.10;99.90;;;;;;5056372;28;19931;-77
2023/09/02 10:47:07;;;;;;;;;;;20.30;99.90;;;;;;5056796;28;19925;-80
2023/09/02 10:49:33;;;;;;;;;;;20.50;99.90;;;;;;5056035;28;20482;-80
2023/09/02 10:51:59;;;;;;;;;;;20.80;99.90;;;;;;5056329;28;19929;-81
2023/09/02 10:54:45;;;;;;;;;;;21.00;99.90;;;;;;5038321;28;19925;-80
2023/09/02 10:57:11;;;;;;;;;;;21.00;99.90;;;;;;5056068;28;19932;-81
2023/09/02 10:59:37;;;;;;;;;;;20.90;99.90;;;;;;5055771;28;19955;-81
2023/09/02 11:02:02;;;;;;;;;;;20.70;99.90;;;;;;5056712;28;19925;-79
2023/09/02 11:04:40;;;;;;;;;;;20.50;99.90;;;;;;5055891;28;19925;-81
2023/09/02 11:07:26;;;;;;;;;;;20.40;99.90;;;;;;5056048;28;19931;-81
2023/09/02 11:09:53;;;;;;;;;;;20.60;99.90;;;;;;5055304;28;20364;-80
2023/09/02 11:12:19;;;;;;;;;;;21.00;99.90;;;;;;5038126;28;19978;-81
2023/09/02 11:15:03;;;;;;;;;;;21.20;99.90;;;;;;5055618;28;19933;-83
2023/09/02 11:17:29;;;;;;;;;;;21.20;99.90;;;;;;5055624;28;19928;-80
2023/09/02 11:19:55;;;;;;;;;;;21.30;99.90;;;;;;5055694;28;20012;-80
2023/09/02 11:22:44;;;;;;;;;;;21.50;99.90;;;;;;5055497;28;19939;-80
2023/09/02 11:25:09;;;;;;;;;;;21.70;99.90;;;;;;5054669;28;20356;-79
2023/09/02 11:27:45;;;;;;;;;;;22.10;99.90;;;;;;5056031;28;19925;-76
2023/09/02 11:30:11;;;;;;;;;;;22.40;99.90;;;;;;5056416;28;20012;-77
2023/09/02 11:32:43;;;;;;;;;;;22.30;99.90;;;;;;5055459;28;19982;-77
2023/09/02 11:35:09;;;;;;;;;;;22.10;99.90;;;;;;5055260;28;19929;-77
2023/09/02 11:37:35;;;;;;;;;;;22.10;99.90;;;;;;5037451;28;19932;-88
2023/09/02 11:40:13;;;;;;;;;;;22.20;99.90;;;;;;5037741;28;19925;-82
2023/09/02 11:42:48;;;;;;;;;;;22.40;99.90;;;;;;5037559;28;19932;-88
2023/09/02 11:45:14;;;;;;;;;;;22.60;99.90;;;;;;5055041;28;19925;-81
2023/09/02 11:47:40;;;;;;;;;;;22.70;99.90;;;;;;5037348;28;19932;-82
2023/09/02 11:50:10;;;;;;;;;;;22.70;99.90;;;;;;5055063;28;19994;-82
2023/09/02 11:52:36;;;;;;;;;;;22.70;99.90;;;;;;5037349;28;19924;-81
2023/09/02 11:55:12;;;;;;;;;;;22.80;99.90;;;;;;5037359;28;19935;-82
2023/09/02 11:57:38;;;;;;;;;;;22.90;99.90;;;;;;5055195;28;19925;-83
2023/09/02 12:00:03;;;;;;;;;;;23.10;99.90;;;;;;5040741;28;20332;-82
2023/09/02 12:02:29;;;;;;;;;;;23.20;99.90;;;;;;5055000;28;19996;-82
2023/09/02 12:04:55;;;;;;;;;;;23.30;99.90;;;;;;5054944;28;19925;-82
2023/09/02 12:07:21;;;;;;;;;;;23.40;99.90;;;;;;5054116;28;19925;-82
2023/09/02 12:09:47;;;;;;;;;;;23.60;99.90;;;;;;5054757;28;19925;-83
2023/09/02 12:12:15;;;;;;;;;;;23.60;99.90;;;;;;5037181;28;20272;-80
2023/09/02 12:14:41;;;;;;;;;;;23.50;99.90;;;;;;5053704;28;19951;-82
2023/09/02 12:17:07;;;;;;;;;;;23.20;99.90;;;;;;5054655;28;20384;-80
2023/09/02 12:19:33;;;;;;;;;;;22.80;99.90;;;;;;5054523;28;19936;-81
2023/09/02 12:21:58;;;;;;;;;;;22.60;99.90;;;;;;5054598;28;19939;-82
2023/09/02 12:24:24;;;;;;;;;;;22.30;99.90;;;;;;5054561;28;19925;-81
2023/09/02 12:26:50;;;;;;;;;;;22.20;99.90;;;;;;5054291;28;20253;-81
2023/09/02 12:29:16;;;;;;;;;;;22.20;99.90;;;;;;5054417;28;20367;-80
2023/09/02 12:31:49;;;;;;;;;;;22.30;99.90;;;;;;5054484;28;19935;-81
2023/09/02 12:34:14;;;;;;;;;;;22.40;99.90;;;;;;5054748;28;19979;-80
2023/09/02 12:36:40;;;;;;;;;;;22.70;99.90;;;;;;5054308;28;19933;-80
2023/09/02 12:39:06;;;;;;;;;;;22.70;99.90;;;;;;5053277;28;19929;-79
2023/09/02 12:41:38;;;;;;;;;;;22.80;99.90;;;;;;5054278;28;19936;-81
2023/09/02 12:44:10;;;;;;;;;;;22.80;99.90;;;;;;5054914;28;19925;-80
2023/09/02 12:46:36;;;;;;;;;;;23.00;99.90;;;;;;5054476;28;20292;-81
2023/09/02 12:49:02;;;;;;;;;;;23.10;99.90;;;;;;5052712;28;19933;-81
2023/09/02 12:51:27;;;;;;;;;;;23.30;99.90;;;;;;5054077;28;19925;-81
2023/09/02 12:53:53;;;;;;;;;;;23.40;99.90;;;;;;5053710;28;19928;-80
2023/09/02 12:56:19;;;;;;;;;;;23.40;99.90;;;;;;5053780;28;19925;-80
2023/09/02 12:58:44;;;;;;;;;;;23.40;99.90;;;;;;5054127;28;19931;-80
2023/09/02 13:01:10;;;;;;;;;;;23.60;99.90;;;;;;5052323;28;20371;-81
2023/09/02 13:03:35;;;;;;;;;;;23.70;99.90;;;;;;5053971;28;20019;-81
2023/09/02 13:06:01;;;;;;;;;;;23.70;99.90;;;;;;5054453;28;19929;-81
2023/09/02 13:08:26;;;;;;;;;;;23.70;99.90;;;;;;5053851;28;20015;-81
2023/09/02 13:10:52;;;;;;;;;;;23.80;99.90;;;;;;5054717;28;19956;-81
2023/09/02 13:13:18;;;;;;;;;;;23.80;99.90;;;;;;5053843;28;19925;-80
2023/09/02 13:15:43;;;;;;;;;;;23.70;99.90;;;;;;5053817;28;19925;-79
2023/09/02 13:18:09;;;;;;;;;;;23.50;99.90;;;;;;5053596;28;19925;-79
2023/09/02 13:20:35;;;;;;;;;;;23.20;99.90;;;;;;5054022;28;19925;-79
2023/09/02 13:23:03;;;;;;;;;;;22.90;99.90;;;;;;5052608;28;19925;-79
2023/09/02 13:25:28;;;;;;;;;;;22.80;99.90;;;;;;5053843;28;20015;-82
2023/09/02 13:27:54;;;;;;;;;;;22.70;99.90;;;;;;5052530;28;20011;-79
2023/09/02 13:30:21;;;;;;;;;;;22.70;99.90;;;;;;5053548;28;19971;-79
2023/09/02 13:32:47;;;;;;;;;;;22.80;99.90;;;;;;5053624;28;19925;-81
2023/09/02 13:35:17;;;;;;;;;;;22.80;99.90;;;;;;5052552;28;19925;-82
2023/09/02 13:37:44;;;;;;;;;;;22.90;99.90;;;;;;5053780;28;19928;-88
2023/09/02 13:40:10;;;;;;;;;;;23.10;99.90;;;;;;5054318;28;19924;-80
2023/09/02 13:42:35;;;;;;;;;;;23.20;99.90;;;;;;5053673;28;20375;-79
2023/09/02 13:45:09;;;;;;;;;;;23.40;99.90;;;;;;5053851;28;20315;-79
2023/09/02 13:47:34;;;;;;;;;;;23.40;99.90;;;;;;5054354;28;19982;-85
2023/09/02 13:50:00;;;;;;;;;;;23.40;99.90;;;;;;5056461;28;20355;-79
2023/09/02 13:52:27;;;;;;;;;;;23.60;99.90;;;;;;5057382;28;19921;-78
2023/09/02 13:54:55;;;;;;;;;;;23.70;99.90;;;;;;5057557;28;20013;-89
2023/09/02 13:57:22;;;;;;;;;;;23.80;99.90;;;;;;5061208;28;19928;-81
2023/09/02 13:59:49;;;;;;;;;;;23.80;99.90;;;;;;5061899;28;19920;-79
2023/09/02 14:02:15;;;;;;;;;;;23.80;99.90;;;;;;5058774;28;19921;-82
2023/09/02 14:04:44;;;;;;;;;;;23.90;99.90;;;;;;5057260;28;19974;-79
2023/09/02 14:07:11;;;;;;;;;;;24.00;99.90;;;;;;5057242;28;19920;-79
2023/09/02 14:09:42;;;;;;;;;;;24.20;99.90;;;;;;5057154;28;19924;-78
2023/09/02 14:12:12;;;;;;;;;;;24.30;99.90;;;;;;5058234;28;19947;-79
2023/09/02 14:14:38;;;;;;;;;;;24.20;99.90;;;;;;5057074;28;19966;-79